Shinkomaru No.18 — JD3625 — position and weather

sailwx.info

Track history (hours):
 
Tides and Currents Weather Stations Pressure Air Temp Water Temp Dewpoint Dewpoint Depression Visibility Wind Speed Wind Dir Waves Ship Positions

Shinkomaru No.18

Last reported at 2018-Feb-19 03:42 UTC. Time now 2018-Feb-20 05:12 UTC.
Position N 34°59' E 140°07'.

Length 82 m; draft 4.6 m.

Type: Cargo ship. MMSI: 431005083.

Date/timePositionNaut miles runAvg speedWind from/ knotsBaromVisibWave heightAir tempDewpointWater temp
2018-Feb-19 03:42N 34°59' E 140°07'511.7
2018-Feb-19 03:18N 34°57' E 140°03'1311.0
2018-Feb-19 02:08N 34°53' E 139°48'1011.7
2018-Feb-19 01:16N 35°03' E 139°44'312.3
2018-Feb-19 01:00N 35°06' E 139°45'612.3
2018-Feb-19 00:30N 35°12' E 139°46'612.0
2018-Feb-19 00:00N 35°18' E 139°44'611.9
2018-Feb-18 23:30N 35°24' E 139°43'5 9.7
2018-Feb-18 23:00N 35°24' E 139°49'4 7.1
2018-Feb-18 22:30N 35°22' E 139°52'0 0.0
2018-Feb-18 22:00N 35°22' E 139°52'0 0.0
2018-Feb-18 21:30N 35°22' E 139°52'0 0.0
2018-Feb-18 21:00N 35°22' E 139°52'0 0.0
2018-Feb-18 20:30N 35°22' E 139°52'0 0.0
2018-Feb-18 20:00N 35°22' E 139°52'0 0.0
2018-Feb-18 19:30N 35°22' E 139°52'0 0.0
2018-Feb-18 19:00N 35°22' E 139°52'0 0.0
2018-Feb-18 18:30N 35°22' E 139°52'0 0.0
2018-Feb-18 18:00N 35°22' E 139°52'0 0.0
2018-Feb-18 17:30N 35°22' E 139°52'0 0.0
2018-Feb-18 17:00N 35°22' E 139°52'0 0.0
2018-Feb-18 16:30N 35°22' E 139°52'0 0.0
2018-Feb-18 16:00N 35°22' E 139°52'0 0.0
2018-Feb-18 15:30N 35°22' E 139°52'0 0.0
2018-Feb-18 15:00N 35°22' E 139°52'0 0.0
2018-Feb-18 14:30N 35°22' E 139°52'0 0.0
2018-Feb-18 14:00N 35°22' E 139°52'0 0.0
2018-Feb-18 13:30N 35°22' E 139°52'0 0.0
2018-Feb-18 13:00N 35°22' E 139°52'0 0.0
2018-Feb-18 12:30N 35°22' E 139°52'0 0.0
2018-Feb-18 12:00N 35°22' E 139°52'0 0.0
2018-Feb-18 11:30N 35°22' E 139°52'0 0.0
2018-Feb-18 11:00N 35°22' E 139°52'0 0.0
2018-Feb-18 10:30N 35°22' E 139°52'0 0.0
2018-Feb-18 10:00N 35°22' E 139°52'0 0.0
2018-Feb-18 09:30N 35°22' E 139°52'0 0.0
2018-Feb-18 09:00N 35°22' E 139°52'0 0.0
2018-Feb-18 08:30N 35°22' E 139°52'0 0.0
2018-Feb-18 08:00N 35°22' E 139°52'3 6.0
2018-Feb-18 07:30N 35°23' E 139°49'5 9.6
2018-Feb-18 07:00N 35°20' E 139°45'611.2
2018-Feb-18 06:30N 35°15' E 139°47'611.7
2018-Feb-18 06:00N 35°09' E 139°46'811.3
2018-Feb-18 05:18N 35°03' E 139°42'311.4
2018-Feb-18 05:00N 35°00' E 139°39'2012.2
2018-Feb-18 03:23N 34°49' E 139°19'513.1
2018-Feb-18 03:00N 34°46' E 139°14'611.9
2018-Feb-18 02:29N 34°43' E 139°07'511.5
2018-Feb-18 02:00N 34°39' E 139°02'611.9
2018-Feb-18 01:30N 34°36' E 138°56'611.3
2018-Feb-18 01:00N 34°35' E 138°49'611.4
2018-Feb-18 00:30N 34°34' E 138°43'611.2
2018-Feb-18 00:00N 34°33' E 138°36'511.0
2018-Feb-17 23:30N 34°32' E 138°29'1111.7
2018-Feb-17 22:33N 34°32' E 138°16'111.8
2018-Feb-17 22:30N 34°32' E 138°15'612.3
2018-Feb-17 22:00N 34°31' E 138°08'156 9.4
2018-Feb-17 05:29N 33°47' E 135°07'612.1
2018-Feb-17 05:00N 33°51' E 135°02'612.1
2018-Feb-17 04:30N 33°55' E 134°57'611.9
2018-Feb-17 04:00N 33°59' E 134°53'612.1
2018-Feb-17 03:30N 34°04' E 134°48'912.4
2018-Feb-17 02:46N 34°12' E 134°41'414.2
2018-Feb-17 02:29N 34°15' E 134°39'511.2
2018-Feb-17 02:00N 34°17' E 134°33'611.5
2018-Feb-17 01:30N 34°19' E 134°26'1310.9
2018-Feb-17 00:19N 34°24' E 134°12'6 0.1
2018-Feb-15 07:16N 34°23' E 134°18'412.2
2018-Feb-15 06:58N 34°22' E 134°22'612.2
2018-Feb-15 06:29N 34°19' E 134°29'712.5
2018-Feb-15 05:56N 34°16' E 134°36'410.1
2018-Feb-15 05:30N 34°13' E 134°40'611.2
2018-Feb-15 04:58N 34°11' E 134°47'612.6
2018-Feb-15 04:30N 34°12' E 134°54'612.4
2018-Feb-15 04:01N 34°13' E 135°01'611.8
2018-Feb-15 03:30N 34°13' E 135°08'0 0.5
2018-Feb-15 02:59N 34°13' E 135°08'0 0.0
2018-Feb-15 02:31N 34°13' E 135°08'0 0.0
2018-Feb-15 02:00N 34°13' E 135°08'0 0.0
2018-Feb-15 01:31N 34°13' E 135°08'0 0.0
2018-Feb-15 01:01N 34°13' E 135°08'0 0.0
2018-Feb-15 00:31N 34°13' E 135°08'0 0.0
2018-Feb-15 00:00N 34°13' E 135°08'0 0.0
2018-Feb-14 23:30N 34°13' E 135°08'3 5.1
2018-Feb-14 23:00N 34°14' E 135°06'1 1.8
2018-Feb-14 22:30N 34°15' E 135°06'0 0.0
2018-Feb-14 22:01N 34°15' E 135°06'0 0.0
2018-Feb-14 21:30N 34°15' E 135°06'0 0.0
2018-Feb-14 21:00N 34°15' E 135°06'0 0.0
2018-Feb-14 20:31N 34°15' E 135°06'0 0.0
2018-Feb-14 20:01N 34°15' E 135°06'0 0.0
2018-Feb-14 19:30N 34°15' E 135°06'0 0.0
2018-Feb-14 19:00N 34°15' E 135°06'0 0.0
2018-Feb-14 18:31N 34°15' E 135°06'0 0.0
2018-Feb-14 18:00N 34°15' E 135°06'0 0.0
2018-Feb-14 17:31N 34°15' E 135°06'0 0.0
2018-Feb-14 17:00N 34°15' E 135°06'0 0.0
2018-Feb-14 16:31N 34°15' E 135°06'0 0.0
2018-Feb-14 16:01N 34°15' E 135°06'0 0.1
2018-Feb-14 15:29N 34°15' E 135°06'0 0.0
2018-Feb-14 15:01N 34°15' E 135°06'0 0.0
2018-Feb-14 14:31N 34°15' E 135°06'0 0.0
2018-Feb-14 14:01N 34°15' E 135°06'0 0.1
2018-Feb-14 13:31N 34°15' E 135°06'0 0.1
2018-Feb-14 13:01N 34°15' E 135°06'0 0.0
2018-Feb-14 12:31N 34°15' E 135°06'0 0.0
2018-Feb-14 12:01N 34°15' E 135°06'0 0.0
2018-Feb-14 11:30N 34°15' E 135°06'0 0.0
2018-Feb-14 11:01N 34°15' E 135°06'0 0.0
2018-Feb-14 10:31N 34°15' E 135°06'0 0.0
2018-Feb-14 10:01N 34°15' E 135°06'0 0.0
2018-Feb-14 09:30N 34°15' E 135°06'0 0.0
2018-Feb-14 09:01N 34°15' E 135°06'0 0.0
2018-Feb-14 08:30N 34°15' E 135°06'0 0.0
2018-Feb-14 08:01N 34°15' E 135°06'0 0.1
2018-Feb-14 07:31N 34°15' E 135°06'0 0.0
2018-Feb-14 07:01N 34°15' E 135°06'0 0.0
2018-Feb-14 06:30N 34°15' E 135°06'0 0.0
2018-Feb-14 06:01N 34°15' E 135°06'0 0.0
2018-Feb-14 05:30N 34°15' E 135°06'0 0.1
2018-Feb-14 05:01N 34°15' E 135°06'1 1.5
2018-Feb-14 04:30N 34°15' E 135°05'5 9.6
2018-Feb-14 04:00N 34°19' E 135°04'612.5
2018-Feb-14 03:31N 34°26' E 135°04'612.2
2018-Feb-14 03:01N 34°32' E 135°04'611.5
2018-Feb-14 02:30N 34°37' E 135°01'612.0
2018-Feb-14 02:00N 34°37' E 134°53'612.4
2018-Feb-14 01:30N 34°40' E 134°47'612.1
2018-Feb-14 01:00N 34°43' E 134°40'4 8.1
2018-Feb-14 00:30N 34°47' E 134°38'0 0.3
2018-Feb-14 00:00N 34°47' E 134°38'0 0.0
2018-Feb-13 23:20N 34°47' E 134°38'0 0.0
2018-Feb-13 22:52N 34°47' E 134°38'0 0.0
2018-Feb-13 22:28N 34°47' E 134°38'0 0.0
2018-Feb-13 22:00N 34°47' E 134°38'0 0.0
2018-Feb-13 21:19N 34°47' E 134°38'0 0.0
2018-Feb-13 19:32N 34°47' E 134°38'0 0.0
2018-Feb-13 19:22N 34°47' E 134°38'0 0.0
2018-Feb-13 19:00N 34°47' E 134°38'0 0.0
2018-Feb-13 18:29N 34°47' E 134°38'0 0.0
2018-Feb-13 17:28N 34°47' E 134°38'0 0.5
2018-Feb-13 16:59N 34°47' E 134°38'0 0.0
2018-Feb-13 16:30N 34°47' E 134°38'0 0.0
2018-Feb-13 15:58N 34°47' E 134°38'0 0.0
2018-Feb-13 15:30N 34°47' E 134°38'0 0.0
2018-Feb-13 15:00N 34°47' E 134°38'0 0.0
2018-Feb-13 14:29N 34°47' E 134°38'0 0.0
2018-Feb-13 13:59N 34°47' E 134°38'0 0.0
2018-Feb-13 13:30N 34°47' E 134°38'0 0.0
2018-Feb-13 13:00N 34°47' E 134°38'0 0.0
2018-Feb-13 12:29N 34°47' E 134°38'0 0.0
2018-Feb-13 11:48N 34°47' E 134°38'0 0.0
2018-Feb-13 11:19N 34°47' E 134°38'0 0.0
2018-Feb-13 11:00N 34°47' E 134°38'0 0.0
2018-Feb-13 10:30N 34°47' E 134°38'0 0.0
2018-Feb-13 10:00N 34°47' E 134°38'0 0.0
2018-Feb-13 09:30N 34°47' E 134°38'0 0.0
2018-Feb-13 08:59N 34°47' E 134°38'0 0.0
2018-Feb-13 08:30N 34°47' E 134°38'0 0.0
2018-Feb-13 07:58N 34°47' E 134°38'0 0.0
2018-Feb-13 07:30N 34°47' E 134°38'2 3.9
2018-Feb-13 06:56N 34°45' E 134°38'0 0.9
2018-Feb-13 06:30N 34°44' E 134°38'0 0.1
2018-Feb-13 06:00N 34°44' E 134°38'0 0.0
2018-Feb-13 05:30N 34°44' E 134°38'0 0.0
2018-Feb-13 05:00N 34°44' E 134°38'0 0.0
2018-Feb-13 04:30N 34°44' E 134°38'0 0.0
2018-Feb-13 04:00N 34°44' E 134°38'0 0.0
2018-Feb-13 03:30N 34°44' E 134°38'0 0.0
2018-Feb-13 03:00N 34°44' E 134°38'0 0.0
2018-Feb-13 02:30N 34°44' E 134°38'0 0.0
2018-Feb-13 01:55N 34°44' E 134°38'0 0.0
2018-Feb-13 01:30N 34°44' E 134°38'0 0.0
2018-Feb-13 01:00N 34°44' E 134°38'0 0.0
2018-Feb-13 00:30N 34°44' E 134°38'0 0.0
2018-Feb-13 00:00N 34°44' E 134°38'0 0.0
2018-Feb-12 23:30N 34°44' E 134°38'0 0.0
2018-Feb-12 23:00N 34°44' E 134°38'0 0.0
2018-Feb-12 22:30N 34°44' E 134°38'0 0.1
2018-Feb-12 21:53N 34°44' E 134°38'0 0.0
2018-Feb-12 21:26N 34°44' E 134°38'0 0.0
2018-Feb-12 20:12N 34°44' E 134°38'0 0.0
2018-Feb-12 20:00N 34°44' E 134°38'0 0.1
2018-Feb-12 19:30N 34°44' E 134°38'0 0.1
2018-Feb-12 19:00N 34°44' E 134°38'0 0.0
2018-Feb-12 18:28N 34°44' E 134°38'0 0.0
2018-Feb-12 18:00N 34°44' E 134°38'0 0.0
2018-Feb-12 17:30N 34°44' E 134°38'0 0.0
2018-Feb-12 17:00N 34°44' E 134°38'0 0.0
2018-Feb-12 16:30N 34°44' E 134°38'0 0.0
2018-Feb-12 16:00N 34°44' E 134°38'0 0.0
2018-Feb-12 15:28N 34°44' E 134°38'0 0.0
2018-Feb-12 15:00N 34°44' E 134°38'0 0.0
2018-Feb-12 14:30N 34°44' E 134°38'0 0.1
2018-Feb-12 14:00N 34°44' E 134°38'0 0.1
2018-Feb-12 13:30N 34°44' E 134°38'0 0.0
2018-Feb-12 13:00N 34°44' E 134°38'0 0.0
2018-Feb-12 12:30N 34°44' E 134°38'0 0.0
2018-Feb-12 11:55N 34°44' E 134°38'0 0.0
2018-Feb-12 11:30N 34°44' E 134°38'0 0.0
2018-Feb-12 10:58N 34°44' E 134°38'0 0.0
2018-Feb-12 10:30N 34°44' E 134°38'0 0.0
2018-Feb-12 10:00N 34°44' E 134°38'0 0.0
2018-Feb-12 09:30N 34°44' E 134°38'0 0.1
2018-Feb-12 09:00N 34°44' E 134°38'0 0.1
2018-Feb-12 08:30N 34°44' E 134°38'0 0.1
2018-Feb-12 08:00N 34°44' E 134°38'0 0.0
2018-Feb-12 07:29N 34°44' E 134°38'0 0.0
2018-Feb-12 07:00N 34°44' E 134°38'0 0.0
2018-Feb-12 06:30N 34°44' E 134°38'0 0.1
2018-Feb-12 06:00N 34°44' E 134°38'0 0.0
2018-Feb-12 05:30N 34°44' E 134°38'0 0.1
2018-Feb-12 05:00N 34°44' E 134°38'0 0.0
2018-Feb-12 04:30N 34°44' E 134°38'0 0.0
2018-Feb-12 04:00N 34°44' E 134°38'0 0.0
2018-Feb-12 03:30N 34°44' E 134°38'0 0.0
2018-Feb-12 03:00N 34°44' E 134°38'0 0.0
2018-Feb-12 02:30N 34°44' E 134°38'0 0.0
2018-Feb-12 02:00N 34°44' E 134°38'0 0.0
2018-Feb-12 01:30N 34°44' E 134°38'0 0.0
2018-Feb-12 01:00N 34°44' E 134°38'0 0.0
2018-Feb-12 00:30N 34°44' E 134°38'0 0.0
2018-Feb-12 00:00N 34°44' E 134°38'0 0.0
2018-Feb-11 23:30N 34°44' E 134°38'0 0.0
2018-Feb-11 23:00N 34°44' E 134°38'0 0.0
2018-Feb-11 22:29N 34°44' E 134°38'0 0.0
2018-Feb-11 22:00N 34°44' E 134°38'0 0.0
2018-Feb-11 21:30N 34°44' E 134°38'0 0.0
2018-Feb-11 21:00N 34°44' E 134°38'0 0.0
2018-Feb-11 20:30N 34°44' E 134°38'0 0.0
2018-Feb-11 20:00N 34°44' E 134°38'0 0.0
2018-Feb-11 19:30N 34°44' E 134°38'0 0.0
2018-Feb-11 19:00N 34°44' E 134°38'0 0.0
2018-Feb-11 18:30N 34°44' E 134°38'0 0.0
2018-Feb-11 18:00N 34°44' E 134°38'0 0.0
2018-Feb-11 17:30N 34°44' E 134°38'0 0.0
2018-Feb-11 17:00N 34°44' E 134°38'0 0.1
2018-Feb-11 16:30N 34°44' E 134°38'0 0.1
2018-Feb-11 16:00N 34°44' E 134°38'0 0.0
2018-Feb-11 15:30N 34°44' E 134°38'0 0.0
2018-Feb-11 15:00N 34°44' E 134°38'0 0.0
2018-Feb-11 14:30N 34°44' E 134°38'0 0.0
2018-Feb-11 13:59N 34°44' E 134°38'0 0.0
2018-Feb-11 13:30N 34°44' E 134°38'0 0.0
2018-Feb-11 13:00N 34°44' E 134°38'0 0.0
2018-Feb-11 12:30N 34°44' E 134°38'0 0.0
2018-Feb-11 12:00N 34°44' E 134°38'0 0.0
2018-Feb-11 11:30N 34°44' E 134°38'0 0.0
2018-Feb-11 11:00N 34°44' E 134°38'1 1.0
2018-Feb-11 10:28N 34°44' E 134°38'510.4
2018-Feb-11 10:00N 34°42' E 134°44'510.5
2018-Feb-11 09:31N 34°39' E 134°49'611.2
2018-Feb-11 09:00N 34°37' E 134°56'511.0
2018-Feb-11 08:30N 34°37' E 135°02'4 8.6
2018-Feb-11 08:00N 34°33' E 135°05'611.1
2018-Feb-11 07:30N 34°28' E 135°03'511.0
2018-Feb-11 07:01N 34°22' E 135°01'510.8
2018-Feb-11 06:30N 34°17' E 134°60'4 7.5
2018-Feb-11 06:01N 34°14' E 135°02'5 9.3
2018-Feb-11 05:30N 34°14' E 135°07'0 0.5
2018-Feb-11 05:00N 34°15' E 135°07'0 0.0
2018-Feb-11 04:30N 34°15' E 135°07'0 0.0
2018-Feb-11 04:01N 34°15' E 135°07'0 0.0
2018-Feb-11 03:30N 34°15' E 135°07'0 0.0
2018-Feb-11 03:00N 34°15' E 135°07'0 0.0
2018-Feb-11 02:31N 34°15' E 135°07'0 0.0
2018-Feb-11 02:00N 34°15' E 135°07'0 0.0
2018-Feb-11 01:30N 34°15' E 135°07'0 0.0
2018-Feb-11 01:01N 34°15' E 135°07'0 0.0
2018-Feb-11 00:30N 34°15' E 135°07'0 0.0
2018-Feb-11 00:01N 34°15' E 135°07'0 0.0
2018-Feb-10 23:30N 34°15' E 135°07'0 0.0
2018-Feb-10 23:01N 34°15' E 135°07'0 0.0
2018-Feb-10 22:31N 34°15' E 135°07'0 0.0
2018-Feb-10 22:01N 34°15' E 135°07'1 1.4
2018-Feb-10 21:30N 34°14' E 135°06'0 0.2
2018-Feb-10 21:00N 34°15' E 135°06'0 0.0
2018-Feb-10 20:31N 34°15' E 135°06'0 0.0
2018-Feb-10 20:01N 34°15' E 135°06'0 0.0
2018-Feb-10 19:31N 34°15' E 135°06'0 0.0
2018-Feb-10 19:01N 34°15' E 135°06'0 0.0
2018-Feb-10 18:31N 34°15' E 135°06'0 0.0
2018-Feb-10 18:01N 34°15' E 135°06'0 0.0
2018-Feb-10 17:31N 34°15' E 135°06'0 0.0
2018-Feb-10 17:00N 34°15' E 135°06'0 0.0
2018-Feb-10 16:31N 34°15' E 135°06'0 0.1
2018-Feb-10 16:01N 34°15' E 135°06'0 0.0
2018-Feb-10 15:30N 34°15' E 135°06'0 0.0
2018-Feb-10 15:01N 34°15' E 135°06'0 0.0
2018-Feb-10 14:31N 34°15' E 135°06'0 0.1
2018-Feb-10 14:00N 34°15' E 135°06'0 0.0
2018-Feb-10 13:31N 34°15' E 135°06'0 0.0
2018-Feb-10 13:00N 34°15' E 135°06'0 0.0
2018-Feb-10 12:30N 34°15' E 135°06'0 0.0
2018-Feb-10 12:01N 34°15' E 135°06'0 0.1
2018-Feb-10 11:31N 34°15' E 135°06'0 0.1
2018-Feb-10 11:00N 34°15' E 135°06'0 0.1
2018-Feb-10 10:30N 34°15' E 135°06'0 0.0
2018-Feb-10 10:00N 34°15' E 135°06'0 0.0
2018-Feb-10 09:31N 34°15' E 135°06'0 0.0
2018-Feb-10 09:01N 34°15' E 135°06'0 0.1
2018-Feb-10 08:30N 34°15' E 135°06'0 0.0
2018-Feb-10 08:00N 34°15' E 135°06'0 0.0
2018-Feb-10 07:30N 34°15' E 135°06'1 1.3
2018-Feb-10 07:01N 34°14' E 135°05'611.6
2018-Feb-10 06:30N 34°09' E 135°03'611.2
2018-Feb-10 06:00N 34°03' E 135°02'511.0
2018-Feb-10 05:31N 33°58' E 135°02'611.8
2018-Feb-10 05:00N 33°52' E 135°02'101 8.1
2018-Feb-09 16:30N 34°41' E 136°49'1211.8
2018-Feb-09 15:30N 34°52' E 136°46'1111.4
2018-Feb-09 14:31N 35°02' E 136°52'0 0.1
2018-Feb-09 13:00N 35°02' E 136°52'0 0.0
2018-Feb-09 12:30N 35°02' E 136°52'0 0.0
2018-Feb-09 11:30N 35°02' E 136°52'0 0.3
2018-Feb-09 10:30N 35°02' E 136°52'3 0.8
2018-Feb-09 07:00N 35°05' E 136°52'0 0.0
2018-Feb-09 06:00N 35°05' E 136°52'0 0.0
2018-Feb-09 05:30N 35°05' E 136°52'0 0.0
2018-Feb-09 05:00N 35°05' E 136°52'0 0.0
2018-Feb-09 04:00N 35°05' E 136°52'  
Track history (hours):
 
Tides and Currents Weather Stations Pressure Air Temp Water Temp Dewpoint Dewpoint Depression Visibility Wind Speed Wind Dir Waves Ship Positions

Shinkomaru No.18

Last reported at 2018-Feb-19 03:42 UTC. Time now 2018-Feb-20 05:12 UTC.
Position N 34°59' E 140°07'.

Length 82 m; draft 4.6 m.

Type: Cargo ship. MMSI: 431005083.

Date/timePositionNaut miles runAvg speedWind from/ knotsBaromVisibWave heightAir tempDewpointWater temp
2018-Feb-19 03:42N 34°59' E 140°07'511.7
2018-Feb-19 03:18N 34°57' E 140°03'1311.0
2018-Feb-19 02:08N 34°53' E 139°48'1011.7
2018-Feb-19 01:16N 35°03' E 139°44'312.3
2018-Feb-19 01:00N 35°06' E 139°45'612.3
2018-Feb-19 00:30N 35°12' E 139°46'612.0
2018-Feb-19 00:00N 35°18' E 139°44'611.9
2018-Feb-18 23:30N 35°24' E 139°43'5 9.7
2018-Feb-18 23:00N 35°24' E 139°49'4 7.1
2018-Feb-18 22:30N 35°22' E 139°52'0 0.0
2018-Feb-18 22:00N 35°22' E 139°52'0 0.0
2018-Feb-18 21:30N 35°22' E 139°52'0 0.0
2018-Feb-18 21:00N 35°22' E 139°52'0 0.0
2018-Feb-18 20:30N 35°22' E 139°52'0 0.0
2018-Feb-18 20:00N 35°22' E 139°52'0 0.0
2018-Feb-18 19:30N 35°22' E 139°52'0 0.0
2018-Feb-18 19:00N 35°22' E 139°52'0 0.0
2018-Feb-18 18:30N 35°22' E 139°52'0 0.0
2018-Feb-18 18:00N 35°22' E 139°52'0 0.0
2018-Feb-18 17:30N 35°22' E 139°52'0 0.0
2018-Feb-18 17:00N 35°22' E 139°52'0 0.0
2018-Feb-18 16:30N 35°22' E 139°52'0 0.0
2018-Feb-18 16:00N 35°22' E 139°52'0 0.0
2018-Feb-18 15:30N 35°22' E 139°52'0 0.0
2018-Feb-18 15:00N 35°22' E 139°52'0 0.0
2018-Feb-18 14:30N 35°22' E 139°52'0 0.0
2018-Feb-18 14:00N 35°22' E 139°52'0 0.0
2018-Feb-18 13:30N 35°22' E 139°52'0 0.0
2018-Feb-18 13:00N 35°22' E 139°52'0 0.0
2018-Feb-18 12:30N 35°22' E 139°52'0 0.0
2018-Feb-18 12:00N 35°22' E 139°52'0 0.0
2018-Feb-18 11:30N 35°22' E 139°52'0 0.0
2018-Feb-18 11:00N 35°22' E 139°52'0 0.0
2018-Feb-18 10:30N 35°22' E 139°52'0 0.0
2018-Feb-18 10:00N 35°22' E 139°52'0 0.0
2018-Feb-18 09:30N 35°22' E 139°52'0 0.0
2018-Feb-18 09:00N 35°22' E 139°52'0 0.0
2018-Feb-18 08:30N 35°22' E 139°52'0 0.0
2018-Feb-18 08:00N 35°22' E 139°52'3 6.0
2018-Feb-18 07:30N 35°23' E 139°49'5 9.6
2018-Feb-18 07:00N 35°20' E 139°45'611.2
2018-Feb-18 06:30N 35°15' E 139°47'611.7
2018-Feb-18 06:00N 35°09' E 139°46'811.3
2018-Feb-18 05:18N 35°03' E 139°42'311.4
2018-Feb-18 05:00N 35°00' E 139°39'2012.2
2018-Feb-18 03:23N 34°49' E 139°19'513.1
2018-Feb-18 03:00N 34°46' E 139°14'611.9
2018-Feb-18 02:29N 34°43' E 139°07'511.5
2018-Feb-18 02:00N 34°39' E 139°02'611.9
2018-Feb-18 01:30N 34°36' E 138°56'611.3
2018-Feb-18 01:00N 34°35' E 138°49'611.4
2018-Feb-18 00:30N 34°34' E 138°43'611.2
2018-Feb-18 00:00N 34°33' E 138°36'511.0
2018-Feb-17 23:30N 34°32' E 138°29'1111.7
2018-Feb-17 22:33N 34°32' E 138°16'111.8
2018-Feb-17 22:30N 34°32' E 138°15'612.3
2018-Feb-17 22:00N 34°31' E 138°08'156 9.4
2018-Feb-17 05:29N 33°47' E 135°07'612.1
2018-Feb-17 05:00N 33°51' E 135°02'612.1
2018-Feb-17 04:30N 33°55' E 134°57'611.9
2018-Feb-17 04:00N 33°59' E 134°53'612.1
2018-Feb-17 03:30N 34°04' E 134°48'912.4
2018-Feb-17 02:46N 34°12' E 134°41'414.2
2018-Feb-17 02:29N 34°15' E 134°39'511.2
2018-Feb-17 02:00N 34°17' E 134°33'611.5
2018-Feb-17 01:30N 34°19' E 134°26'1310.9
2018-Feb-17 00:19N 34°24' E 134°12'6 0.1
2018-Feb-15 07:16N 34°23' E 134°18'412.2
2018-Feb-15 06:58N 34°22' E 134°22'612.2
2018-Feb-15 06:29N 34°19' E 134°29'712.5
2018-Feb-15 05:56N 34°16' E 134°36'410.1
2018-Feb-15 05:30N 34°13' E 134°40'611.2
2018-Feb-15 04:58N 34°11' E 134°47'612.6
2018-Feb-15 04:30N 34°12' E 134°54'612.4
2018-Feb-15 04:01N 34°13' E 135°01'611.8
2018-Feb-15 03:30N 34°13' E 135°08'0 0.5
2018-Feb-15 02:59N 34°13' E 135°08'0 0.0
2018-Feb-15 02:31N 34°13' E 135°08'0 0.0
2018-Feb-15 02:00N 34°13' E 135°08'0 0.0
2018-Feb-15 01:31N 34°13' E 135°08'0 0.0
2018-Feb-15 01:01N 34°13' E 135°08'0 0.0
2018-Feb-15 00:31N 34°13' E 135°08'0 0.0
2018-Feb-15 00:00N 34°13' E 135°08'0 0.0
2018-Feb-14 23:30N 34°13' E 135°08'3 5.1
2018-Feb-14 23:00N 34°14' E 135°06'1 1.8
2018-Feb-14 22:30N 34°15' E 135°06'0 0.0
2018-Feb-14 22:01N 34°15' E 135°06'0 0.0
2018-Feb-14 21:30N 34°15' E 135°06'0 0.0
2018-Feb-14 21:00N 34°15' E 135°06'0 0.0
2018-Feb-14 20:31N 34°15' E 135°06'0 0.0
2018-Feb-14 20:01N 34°15' E 135°06'0 0.0
2018-Feb-14 19:30N 34°15' E 135°06'0 0.0
2018-Feb-14 19:00N 34°15' E 135°06'0 0.0
2018-Feb-14 18:31N 34°15' E 135°06'0 0.0
2018-Feb-14 18:00N 34°15' E 135°06'0 0.0
2018-Feb-14 17:31N 34°15' E 135°06'0 0.0
2018-Feb-14 17:00N 34°15' E 135°06'0 0.0
2018-Feb-14 16:31N 34°15' E 135°06'0 0.0
2018-Feb-14 16:01N 34°15' E 135°06'0 0.1
2018-Feb-14 15:29N 34°15' E 135°06'0 0.0
2018-Feb-14 15:01N 34°15' E 135°06'0 0.0
2018-Feb-14 14:31N 34°15' E 135°06'0 0.0
2018-Feb-14 14:01N 34°15' E 135°06'0 0.1
2018-Feb-14 13:31N 34°15' E 135°06'0 0.1
2018-Feb-14 13:01N 34°15' E 135°06'0 0.0
2018-Feb-14 12:31N 34°15' E 135°06'0 0.0
2018-Feb-14 12:01N 34°15' E 135°06'0 0.0
2018-Feb-14 11:30N 34°15' E 135°06'0 0.0
2018-Feb-14 11:01N 34°15' E 135°06'0 0.0
2018-Feb-14 10:31N 34°15' E 135°06'0 0.0
2018-Feb-14 10:01N 34°15' E 135°06'0 0.0
2018-Feb-14 09:30N 34°15' E 135°06'0 0.0
2018-Feb-14 09:01N 34°15' E 135°06'0 0.0
2018-Feb-14 08:30N 34°15' E 135°06'0 0.0
2018-Feb-14 08:01N 34°15' E 135°06'0 0.1
2018-Feb-14 07:31N 34°15' E 135°06'0 0.0
2018-Feb-14 07:01N 34°15' E 135°06'0 0.0
2018-Feb-14 06:30N 34°15' E 135°06'0 0.0
2018-Feb-14 06:01N 34°15' E 135°06'0 0.0
2018-Feb-14 05:30N 34°15' E 135°06'0 0.1
2018-Feb-14 05:01N 34°15' E 135°06'1 1.5
2018-Feb-14 04:30N 34°15' E 135°05'5 9.6
2018-Feb-14 04:00N 34°19' E 135°04'612.5
2018-Feb-14 03:31N 34°26' E 135°04'612.2
2018-Feb-14 03:01N 34°32' E 135°04'611.5
2018-Feb-14 02:30N 34°37' E 135°01'612.0
2018-Feb-14 02:00N 34°37' E 134°53'612.4
2018-Feb-14 01:30N 34°40' E 134°47'612.1
2018-Feb-14 01:00N 34°43' E 134°40'4 8.1
2018-Feb-14 00:30N 34°47' E 134°38'0 0.3
2018-Feb-14 00:00N 34°47' E 134°38'0 0.0
2018-Feb-13 23:20N 34°47' E 134°38'0 0.0
2018-Feb-13 22:52N 34°47' E 134°38'0 0.0
2018-Feb-13 22:28N 34°47' E 134°38'0 0.0
2018-Feb-13 22:00N 34°47' E 134°38'0 0.0
2018-Feb-13 21:19N 34°47' E 134°38'0 0.0
2018-Feb-13 19:32N 34°47' E 134°38'0 0.0
2018-Feb-13 19:22N 34°47' E 134°38'0 0.0
2018-Feb-13 19:00N 34°47' E 134°38'0 0.0
2018-Feb-13 18:29N 34°47' E 134°38'0 0.0
2018-Feb-13 17:28N 34°47' E 134°38'0 0.5
2018-Feb-13 16:59N 34°47' E 134°38'0 0.0
2018-Feb-13 16:30N 34°47' E 134°38'0 0.0
2018-Feb-13 15:58N 34°47' E 134°38'0 0.0
2018-Feb-13 15:30N 34°47' E 134°38'0 0.0
2018-Feb-13 15:00N 34°47' E 134°38'0 0.0
2018-Feb-13 14:29N 34°47' E 134°38'0 0.0
2018-Feb-13 13:59N 34°47' E 134°38'0 0.0
2018-Feb-13 13:30N 34°47' E 134°38'0 0.0
2018-Feb-13 13:00N 34°47' E 134°38'0 0.0
2018-Feb-13 12:29N 34°47' E 134°38'0 0.0
2018-Feb-13 11:48N 34°47' E 134°38'0 0.0
2018-Feb-13 11:19N 34°47' E 134°38'0 0.0
2018-Feb-13 11:00N 34°47' E 134°38'0 0.0
2018-Feb-13 10:30N 34°47' E 134°38'0 0.0
2018-Feb-13 10:00N 34°47' E 134°38'0 0.0
2018-Feb-13 09:30N 34°47' E 134°38'0 0.0
2018-Feb-13 08:59N 34°47' E 134°38'0 0.0
2018-Feb-13 08:30N 34°47' E 134°38'0 0.0
2018-Feb-13 07:58N 34°47' E 134°38'0 0.0
2018-Feb-13 07:30N 34°47' E 134°38'2 3.9
2018-Feb-13 06:56N 34°45' E 134°38'0 0.9
2018-Feb-13 06:30N 34°44' E 134°38'0 0.1
2018-Feb-13 06:00N 34°44' E 134°38'0 0.0
2018-Feb-13 05:30N 34°44' E 134°38'0 0.0
2018-Feb-13 05:00N 34°44' E 134°38'0 0.0
2018-Feb-13 04:30N 34°44' E 134°38'0 0.0
2018-Feb-13 04:00N 34°44' E 134°38'0 0.0
2018-Feb-13 03:30N 34°44' E 134°38'0 0.0
2018-Feb-13 03:00N 34°44' E 134°38'0 0.0
2018-Feb-13 02:30N 34°44' E 134°38'0 0.0
2018-Feb-13 01:55N 34°44' E 134°38'0 0.0
2018-Feb-13 01:30N 34°44' E 134°38'0 0.0
2018-Feb-13 01:00N 34°44' E 134°38'0 0.0
2018-Feb-13 00:30N 34°44' E 134°38'0 0.0
2018-Feb-13 00:00N 34°44' E 134°38'0 0.0
2018-Feb-12 23:30N 34°44' E 134°38'0 0.0
2018-Feb-12 23:00N 34°44' E 134°38'0 0.0
2018-Feb-12 22:30N 34°44' E 134°38'0 0.1
2018-Feb-12 21:53N 34°44' E 134°38'0 0.0
2018-Feb-12 21:26N 34°44' E 134°38'0 0.0
2018-Feb-12 20:12N 34°44' E 134°38'0 0.0
2018-Feb-12 20:00N 34°44' E 134°38'0 0.1
2018-Feb-12 19:30N 34°44' E 134°38'0 0.1
2018-Feb-12 19:00N 34°44' E 134°38'0 0.0
2018-Feb-12 18:28N 34°44' E 134°38'0 0.0
2018-Feb-12 18:00N 34°44' E 134°38'0 0.0
2018-Feb-12 17:30N 34°44' E 134°38'0 0.0
2018-Feb-12 17:00N 34°44' E 134°38'0 0.0
2018-Feb-12 16:30N 34°44' E 134°38'0 0.0
2018-Feb-12 16:00N 34°44' E 134°38'0 0.0
2018-Feb-12 15:28N 34°44' E 134°38'0 0.0
2018-Feb-12 15:00N 34°44' E 134°38'0 0.0
2018-Feb-12 14:30N 34°44' E 134°38'0 0.1
2018-Feb-12 14:00N 34°44' E 134°38'0 0.1
2018-Feb-12 13:30N 34°44' E 134°38'0 0.0
2018-Feb-12 13:00N 34°44' E 134°38'0 0.0
2018-Feb-12 12:30N 34°44' E 134°38'0 0.0
2018-Feb-12 11:55N 34°44' E 134°38'0 0.0
2018-Feb-12 11:30N 34°44' E 134°38'0 0.0
2018-Feb-12 10:58N 34°44' E 134°38'0 0.0
2018-Feb-12 10:30N 34°44' E 134°38'0 0.0
2018-Feb-12 10:00N 34°44' E 134°38'0 0.0
2018-Feb-12 09:30N 34°44' E 134°38'0 0.1
2018-Feb-12 09:00N 34°44' E 134°38'0 0.1
2018-Feb-12 08:30N 34°44' E 134°38'0 0.1
2018-Feb-12 08:00N 34°44' E 134°38'0 0.0
2018-Feb-12 07:29N 34°44' E 134°38'0 0.0
2018-Feb-12 07:00N 34°44' E 134°38'0 0.0
2018-Feb-12 06:30N 34°44' E 134°38'0 0.1
2018-Feb-12 06:00N 34°44' E 134°38'0 0.0
2018-Feb-12 05:30N 34°44' E 134°38'0 0.1
2018-Feb-12 05:00N 34°44' E 134°38'0 0.0
2018-Feb-12 04:30N 34°44' E 134°38'0 0.0
2018-Feb-12 04:00N 34°44' E 134°38'0 0.0
2018-Feb-12 03:30N 34°44' E 134°38'0 0.0
2018-Feb-12 03:00N 34°44' E 134°38'0 0.0
2018-Feb-12 02:30N 34°44' E 134°38'0 0.0
2018-Feb-12 02:00N 34°44' E 134°38'0 0.0
2018-Feb-12 01:30N 34°44' E 134°38'0 0.0
2018-Feb-12 01:00N 34°44' E 134°38'0 0.0
2018-Feb-12 00:30N 34°44' E 134°38'0 0.0
2018-Feb-12 00:00N 34°44' E 134°38'0 0.0
2018-Feb-11 23:30N 34°44' E 134°38'0 0.0
2018-Feb-11 23:00N 34°44' E 134°38'0 0.0
2018-Feb-11 22:29N 34°44' E 134°38'0 0.0
2018-Feb-11 22:00N 34°44' E 134°38'0 0.0
2018-Feb-11 21:30N 34°44' E 134°38'0 0.0
2018-Feb-11 21:00N 34°44' E 134°38'0 0.0
2018-Feb-11 20:30N 34°44' E 134°38'0 0.0
2018-Feb-11 20:00N 34°44' E 134°38'0 0.0
2018-Feb-11 19:30N 34°44' E 134°38'0 0.0
2018-Feb-11 19:00N 34°44' E 134°38'0 0.0
2018-Feb-11 18:30N 34°44' E 134°38'0 0.0
2018-Feb-11 18:00N 34°44' E 134°38'0 0.0
2018-Feb-11 17:30N 34°44' E 134°38'0 0.0
2018-Feb-11 17:00N 34°44' E 134°38'0 0.1
2018-Feb-11 16:30N 34°44' E 134°38'0 0.1
2018-Feb-11 16:00N 34°44' E 134°38'0 0.0
2018-Feb-11 15:30N 34°44' E 134°38'0 0.0
2018-Feb-11 15:00N 34°44' E 134°38'0 0.0
2018-Feb-11 14:30N 34°44' E 134°38'0 0.0
2018-Feb-11 13:59N 34°44' E 134°38'0 0.0
2018-Feb-11 13:30N 34°44' E 134°38'0 0.0
2018-Feb-11 13:00N 34°44' E 134°38'0 0.0
2018-Feb-11 12:30N 34°44' E 134°38'0 0.0
2018-Feb-11 12:00N 34°44' E 134°38'0 0.0
2018-Feb-11 11:30N 34°44' E 134°38'0 0.0
2018-Feb-11 11:00N 34°44' E 134°38'1 1.0
2018-Feb-11 10:28N 34°44' E 134°38'510.4
2018-Feb-11 10:00N 34°42' E 134°44'510.5
2018-Feb-11 09:31N 34°39' E 134°49'611.2
2018-Feb-11 09:00N 34°37' E 134°56'511.0
2018-Feb-11 08:30N 34°37' E 135°02'4 8.6
2018-Feb-11 08:00N 34°33' E 135°05'611.1
2018-Feb-11 07:30N 34°28' E 135°03'511.0
2018-Feb-11 07:01N 34°22' E 135°01'510.8
2018-Feb-11 06:30N 34°17' E 134°60'4 7.5
2018-Feb-11 06:01N 34°14' E 135°02'5 9.3
2018-Feb-11 05:30N 34°14' E 135°07'0 0.5
2018-Feb-11 05:00N 34°15' E 135°07'0 0.0
2018-Feb-11 04:30N 34°15' E 135°07'0 0.0
2018-Feb-11 04:01N 34°15' E 135°07'0 0.0
2018-Feb-11 03:30N 34°15' E 135°07'0 0.0
2018-Feb-11 03:00N 34°15' E 135°07'0 0.0
2018-Feb-11 02:31N 34°15' E 135°07'0 0.0
2018-Feb-11 02:00N 34°15' E 135°07'0 0.0
2018-Feb-11 01:30N 34°15' E 135°07'0 0.0
2018-Feb-11 01:01N 34°15' E 135°07'0 0.0
2018-Feb-11 00:30N 34°15' E 135°07'0 0.0
2018-Feb-11 00:01N 34°15' E 135°07'0 0.0
2018-Feb-10 23:30N 34°15' E 135°07'0 0.0
2018-Feb-10 23:01N 34°15' E 135°07'0 0.0
2018-Feb-10 22:31N 34°15' E 135°07'0 0.0
2018-Feb-10 22:01N 34°15' E 135°07'1 1.4
2018-Feb-10 21:30N 34°14' E 135°06'0 0.2
2018-Feb-10 21:00N 34°15' E 135°06'0 0.0
2018-Feb-10 20:31N 34°15' E 135°06'0 0.0
2018-Feb-10 20:01N 34°15' E 135°06'0 0.0
2018-Feb-10 19:31N 34°15' E 135°06'0 0.0
2018-Feb-10 19:01N 34°15' E 135°06'0 0.0
2018-Feb-10 18:31N 34°15' E 135°06'0 0.0
2018-Feb-10 18:01N 34°15' E 135°06'0 0.0
2018-Feb-10 17:31N 34°15' E 135°06'0 0.0
2018-Feb-10 17:00N 34°15' E 135°06'0 0.0
2018-Feb-10 16:31N 34°15' E 135°06'0 0.1
2018-Feb-10 16:01N 34°15' E 135°06'0 0.0
2018-Feb-10 15:30N 34°15' E 135°06'0 0.0
2018-Feb-10 15:01N 34°15' E 135°06'0 0.0
2018-Feb-10 14:31N 34°15' E 135°06'0 0.1
2018-Feb-10 14:00N 34°15' E 135°06'0 0.0
2018-Feb-10 13:31N 34°15' E 135°06'0 0.0
2018-Feb-10 13:00N 34°15' E 135°06'0 0.0
2018-Feb-10 12:30N 34°15' E 135°06'0 0.0
2018-Feb-10 12:01N 34°15' E 135°06'0 0.1
2018-Feb-10 11:31N 34°15' E 135°06'0 0.1
2018-Feb-10 11:00N 34°15' E 135°06'0 0.1
2018-Feb-10 10:30N 34°15' E 135°06'0 0.0
2018-Feb-10 10:00N 34°15' E 135°06'0 0.0
2018-Feb-10 09:31N 34°15' E 135°06'0 0.0
2018-Feb-10 09:01N 34°15' E 135°06'0 0.1
2018-Feb-10 08:30N 34°15' E 135°06'0 0.0
2018-Feb-10 08:00N 34°15' E 135°06'0 0.0
2018-Feb-10 07:30N 34°15' E 135°06'1 1.3
2018-Feb-10 07:01N 34°14' E 135°05'611.6
2018-Feb-10 06:30N 34°09' E 135°03'611.2
2018-Feb-10 06:00N 34°03' E 135°02'511.0
2018-Feb-10 05:31N 33°58' E 135°02'611.8
2018-Feb-10 05:00N 33°52' E 135°02'101 8.1
2018-Feb-09 16:30N 34°41' E 136°49'1211.8
2018-Feb-09 15:30N 34°52' E 136°46'1111.4
2018-Feb-09 14:31N 35°02' E 136°52'0 0.1
2018-Feb-09 13:00N 35°02' E 136°52'0 0.0
2018-Feb-09 12:30N 35°02' E 136°52'0 0.0
2018-Feb-09 11:30N 35°02' E 136°52'0 0.3
2018-Feb-09 10:30N 35°02' E 136°52'3 0.8
2018-Feb-09 07:00N 35°05' E 136°52'0 0.0
2018-Feb-09 06:00N 35°05' E 136°52'0 0.0
2018-Feb-09 05:30N 35°05' E 136°52'0 0.0
2018-Feb-09 05:00N 35°05' E 136°52'0 0.0
2018-Feb-09 04:00N 35°05' E 136°52'  

Dump ship's entire track history